• Join FlightAware (Why Join?)
  • Login
  • US Flag 
01:59PM EST


 

Airport Tracker/Info


-or-


 

Live Flight TrackerFlight Track Log ✈ AWE1253 ✈ 20-Apr-2014 ✈ KORD - KLAX

Flight Track Log - Related Links

Times and Time Zones

All times are in EDT time to prevent confusion due to time zone crossing. See the AWE1253 flight status page for this flight to view local times or setup timezone preferences in your user account.

Time Position Orientation Groundspeed Altitude Reporting Facility
EDT Latitude Longitude Course Direction KTS MPH feet Rate Location/Type
09:28PM 41.9667 -87.9500 270° West 177 204 2,100  Level Chicago TRACON
09:29PM 41.9667 -88.0333 270° West 247 284 4,000 1,860 Climbing Chicago TRACON
09:30PM 41.9731 -88.0825 280° West 251 289 5,000 1,440 Climbing Chicago Center
09:31PM 41.9739 -88.1808 271° West 261 300 6,300 2,340 Climbing Chicago Center
09:32PM 42.0202 -88.4787 276° West  Level FlightAware Approximate
09:32PM 41.9853 -88.2769 279° West 263 303 9,800  Level Chicago Center
09:33PM 42.0314 -88.6243 276° West  Level FlightAware Approximate
09:33PM 41.9989 -88.3867 280° West 278 320 13,000  Level Chicago Center
09:34PM 42.0333 -88.7768 270° West  Level FlightAware Approximate
09:34PM 42.0119 -88.5031 279° West 321 369 14,900  Level Chicago Center
09:35PM 42.0269 -88.6300 279° West 344 396 17,600 2,280 Climbing Chicago Center
09:36PM 42.0406 -88.7539 278° West 350 403 19,700 2,280 Climbing Chicago Center
09:37PM 42.0422 -88.8906 271° West 365 420 22,300 2,400 Climbing Chicago Center
09:38PM 42.0325 -89.0592 266° West 373 429 24,700 2,100 Climbing Chicago Center
09:39PM 42.0228 -89.2047 265° West 388 447 26,700 1,740 Climbing Chicago Center
09:40PM 42.0144 -89.3539 266° West 399 459 28,300 1,440 Climbing Chicago Center
09:41PM 42.0044 -89.5056 265° West 406 467 29,700 1,620 Climbing Chicago Center
09:42PM 41.9944 -89.6558 265° West 409 471 31,700 1,860 Climbing Chicago Center
09:43PM 41.9853 -89.8044 265° West 405 466 33,600 1,800 Climbing Chicago Center
09:44PM 41.9744 -89.9653 265° West 393 452 35,400 1,440 Climbing Chicago Center
09:45PM 41.9656 -90.1047 265° West 384 442 36,600 1,020 Climbing Chicago Center
09:46PM 41.9556 -90.2447 265° West 382 440 37,600 660 Climbing Chicago Center
09:47PM 41.9456 -90.3831 264° West 378 435 38,000 180 Climbing Chicago Center
09:48PM 41.9358 -90.5208 265° West 377 434 38,000  Level Chicago Center
09:49PM 41.9242 -90.6633 264° West 381 438 38,000  Level Chicago Center
09:50PM 41.9131 -90.8047 264° West 384 442 38,000  Level Chicago Center
09:51PM 41.9008 -90.9739 265° West 381 438 38,000  Level Chicago Center
09:52PM 41.8900 -91.1158 264° West 384 442 38,000  Level Chicago Center
09:53PM 41.8778 -91.2628 264° West 390 449 38,000  Level Chicago Center
09:54PM 41.8675 -91.4075 265° West 392 451 38,000  Level Chicago Center
09:55PM 41.8556 -91.5544 264° West 394 453 38,000  Level Chicago Center
09:56PM 41.8439 -91.7006 264° West 395 455 38,000  Level Chicago Center
09:57PM 41.8328 -91.8489 264° West 397 457 38,000  Level Chicago Center
09:58PM 41.8253 -91.9997 266° West 403 464 38,000  Level Chicago Center
09:59PM 41.8139 -92.1783 265° West 403 464 38,000  Level Chicago Center
10:01PM 41.8056 -92.3278 266° West 404 465 38,000  Level Chicago Center
10:02PM 41.7967 -92.4775 265° West 404 465 38,000  Level Chicago Center
10:03PM 41.7856 -92.6264 264° West 404 465 38,000  Level Chicago Center
10:03PM 41.7756 -92.7472 264° West 403 464 38,000  Level Minneapolis Center
10:04PM 41.7450 -92.8958 255° West 404 465 38,000  Level Minneapolis Center
10:05PM 41.7181 -93.0392 256° West 405 466 38,000  Level Minneapolis Center
10:06PM 41.6903 -93.1825 255° West 405 466 38,000  Level Minneapolis Center
10:07PM 41.6622 -93.3272 255° West 405 466 38,000  Level Minneapolis Center
10:08PM 41.6353 -93.4744 256° West 406 467 38,000  Level Minneapolis Center
10:09PM 41.6061 -93.6172 255° West 406 467 38,000  Level Minneapolis Center
10:10PM 41.5778 -93.7653 256° West 410 472 38,000  Level Minneapolis Center
10:11PM 41.5439 -93.9400 256° West 410 472 38,000  Level Minneapolis Center
10:12PM 41.5153 -94.0861 255° West 411 473 38,000  Level Minneapolis Center
10:14PM 41.4875 -94.2242 255° West 411 473 38,000  Level Minneapolis Center
10:15PM 41.4569 -94.3708 255° West 411 473 38,000  Level Minneapolis Center
10:16PM 41.4286 -94.5147 255° West 406 467 38,000  Level Minneapolis Center
10:17PM 41.3997 -94.6606 255° West 406 467 38,000  Level Minneapolis Center
10:18PM 41.3631 -94.8358 254° West 406 467 38,000  Level Minneapolis Center
10:19PM 41.3325 -94.9819 254° West 406 467 38,000  Level Minneapolis Center
10:20PM 41.3019 -95.1286 255° West 407 468 38,000  Level Minneapolis Center
10:21PM 41.2719 -95.2756 255° West 410 472 38,000  Level Minneapolis Center
10:22PM 41.2403 -95.4228 254° West 410 472 38,000  Level Minneapolis Center
10:23PM 41.2075 -95.5706 254° West 415 478 38,000  Level Minneapolis Center
10:24PM 41.1744 -95.7333 255° West 415 478 38,000  Level Minneapolis Center
10:25PM 41.1436 -95.8794 254° West 414 476 38,000  Level Minneapolis Center
10:26PM 41.1111 -96.0167 253° West 416 479 38,000  Level Minneapolis Center
10:27PM 41.0794 -96.1661 254° West 416 479 38,000  Level Minneapolis Center
10:28PM 41.0467 -96.3147 254° West 416 479 38,000  Level Minneapolis Center
10:29PM 41.0133 -96.4644 254° West 417 480 38,000  Level Minneapolis Center
10:30PM 40.9803 -96.6136 254° West 418 481 38,000  Level Minneapolis Center
10:31PM 40.9464 -96.7619 253° West 418 481 38,000  Level Minneapolis Center
10:32PM 40.9133 -96.9097 254° West 419 482 38,000  Level Minneapolis Center
10:33PM 40.8806 -97.0567 254° West 418 481 38,000  Level Minneapolis Center
10:34PM 40.8394 -97.2314 253° West 418 481 38,000  Level Minneapolis Center
10:35PM 40.8053 -97.3767 253° West 417 480 38,000  Level Minneapolis Center
10:36PM 40.7700 -97.5303 253° West 417 480 38,000  Level Minneapolis Center
10:37PM 40.7367 -97.6747 253° West 416 479 38,000  Level Minneapolis Center
10:38PM 40.7025 -97.8189 253° West 413 475 38,000  Level Minneapolis Center
10:39PM 40.6678 -97.9619 252° West 412 474 38,000  Level Minneapolis Center
10:40PM 40.6347 -98.1061 253° West 412 474 38,000  Level Minneapolis Center
10:41PM 40.5989 -98.2494 252° West 412 474 38,000  Level Minneapolis Center
10:42PM 40.5647 -98.3944 253° West 412 474 38,000  Level Minneapolis Center
10:43PM 40.5297 -98.5372 252° West 412 474 38,000  Level Minneapolis Center
10:44PM 40.4956 -98.6767 252° West 404 465 38,000  Level Minneapolis Center
10:45PM 40.4625 -98.8139 252° West 399 459 38,000 -540 Level Minneapolis Center
10:46PM 40.4292 -98.9511 252° West 397 457 37,000 -1,020 Descending Minneapolis Center
10:47PM 40.3942 -99.0897 252° West 396 456 36,000 -1,020 Descending Minneapolis Center
10:48PM 40.3658 -99.2036 252° West 406 467 35,200 -960 Descending Denver Center
10:49PM 40.3297 -99.3481 252° West 413 475 34,300 -1,080 Descending Denver Center
10:50PM 40.2850 -99.5219 251° West 416 479 33,100 -1,080 Descending Denver Center
10:51PM 40.2475 -99.6700 252° West 424 488 32,200 -540 Descending Denver Center
10:52PM 40.2094 -99.8178 251° West 425 489 32,000 -120 Descending Denver Center
10:53PM 40.1694 -99.9733 251° West 426 490 32,000  Level Denver Center
10:54PM 40.1322 -100.1178 251° West 435 501 32,000  Level Denver Center
10:55PM 40.0944 -100.2606 251° West 435 501 32,000  Level Denver Center
10:56PM 40.0506 -100.4286 251° West 435 501 32,000  Level Denver Center
10:57PM 40.0128 -100.5719 251° West 435 501 32,000  Level Denver Center
10:58PM 39.9675 -100.7406 251° West 436 502 32,000  Level Denver Center
10:59PM 39.9292 -100.8847 251° West 437 503 32,000  Level Denver Center
11:00PM 39.8908 -101.0275 251° West 437 503 32,000  Level Denver Center
11:01PM 39.8453 -101.1933 250° West 437 503 32,000  Level Denver Center
11:02PM 39.8067 -101.3361 251° West 436 502 32,000  Level Denver Center
11:03PM 39.7611 -101.5017 250° West 436 502 32,000  Level Denver Center
11:04PM 39.7222 -101.6433 250° West 436 502 32,000  Level Denver Center
11:05PM 39.6836 -101.7858 251° West 436 502 32,000  Level Denver Center
11:06PM 39.6375 -101.9486 250° West 432 497 32,000  Level Denver Center
11:07PM 39.5986 -102.0892 250° West 432 497 32,000  Level Denver Center
11:08PM 39.5583 -102.2283 249° West 432 497 32,000  Level Denver Center
11:09PM 39.5158 -102.3747 249° West 432 497 32,000  Level Denver Center
11:11PM 39.4756 -102.5222 251° West 434 499 32,000  Level Denver Center
11:12PM 39.4250 -102.6986 250° West 434 499 32,000  Level Denver Center
11:13PM 39.3819 -102.8444 249° West 435 501 32,000  Level Denver Center
11:14PM 39.3394 -102.9906 249° West 435 501 32,000  Level Denver Center
11:15PM 39.2969 -103.1381 250° West 438 504 32,000  Level Denver Center
11:16PM 39.2533 -103.2856 249° West 438 504 32,000  Level Denver Center
11:17PM 39.2106 -103.4317 249° West 438 504 32,000  Level Denver Center
11:18PM 39.1667 -103.5764 249° West 434 499 32,000  Level Denver Center
11:19PM 39.1233 -103.7219 249° West 434 499 32,000  Level Denver Center
11:20PM 39.0811 -103.8667 249° West 434 499 32,000  Level Denver Center
11:21PM 39.0372 -104.0108 249° West 433 498 32,000  Level Denver Center
11:22PM 38.9844 -104.1836 249° West 433 498 32,000  Level Denver Center
11:23PM 38.9403 -104.3275 249° West 431 496 32,000  Level Denver Center
11:24PM 38.8972 -104.4697 249° West 430 495 32,000  Level Denver Center
11:25PM 38.8519 -104.6128 248° West 433 498 32,000  Level Denver Center
11:26PM 38.8092 -104.7542 249° West 429 494 32,000  Level Denver Center
11:27PM 38.7642 -104.8986 248° West 429 494 32,000  Level Denver Center
11:28PM 38.7181 -105.0442 248° West 435 501 32,000  Level Denver Center
11:29PM 38.6725 -105.1906 248° West 439 505 32,000  Level Denver Center
11:30PM 38.6264 -105.3347 248° West 439 505 32,000  Level Denver Center
11:31PM 38.5806 -105.4778 248° West 438 504 32,000  Level Denver Center
11:32PM 38.5358 -105.6214 248° West 438 504 32,000 120 Level Denver Center
11:33PM 38.4811 -105.7919 248° West 437 503 32,300 900 Climbing Denver Center
11:34PM 38.4369 -105.9256 247° West 434 499 33,900 1,200 Climbing Denver Center
11:35PM 38.3933 -106.0589 247° West 429 494 35,100 1,320 Climbing Denver Center
11:36PM 38.3325 -106.2433 247° West 432 497 37,000 1,380 Climbing Denver Center
11:37PM 38.2867 -106.3828 247° West 430 495 38,000 480 Climbing Denver Center
11:38PM 38.2425 -106.5153 247° West 424 488 38,000  Level Denver Center
11:39PM 38.1928 -106.6686 248° West 423 487 38,000  Level Denver Center
11:40PM 38.1475 -106.8025 247° West 425 489 38,000  Level Denver Center
11:41PM 38.1019 -106.9386 247° West 427 491 38,000  Level Denver Center
11:42PM 38.0514 -107.0911 247° West 427 491 38,000  Level Denver Center
11:43PM 38.0100 -107.2142 247° West 427 491 38,000  Level Denver Center
11:44PM 37.9567 -107.3681 246° West 427 491 38,000  Level Denver Center
11:45PM 37.9119 -107.5011 247° West 427 491 38,000  Level Denver Center
11:46PM 37.8592 -107.6550 247° West 427 491 38,000  Level Denver Center
11:47PM 37.8125 -107.7856 246° West 426 490 38,000  Level Denver Center
11:48PM 37.7678 -107.9197 247° West 433 498 38,000  Level Denver Center
11:49PM 37.7133 -108.0733 246° West 431 496 38,000  Level Denver Center
11:51PM 37.6681 -108.2047 247° West 428 493 38,000  Level Denver Center
11:52PM 37.6150 -108.3561 246° West 423 487 38,000  Level Denver Center
11:53PM 37.5686 -108.4858 246° West 425 489 38,000  Level Denver Center
11:54PM 37.5231 -108.6164 246° West 426 490 38,000  Level Denver Center
11:55PM 37.4686 -108.7664 245° Southwest 425 489 38,000  Level Denver Center
11:56PM 37.4225 -108.8981 246° West 428 493 38,000  Level Denver Center
11:57PM 37.3756 -109.0258 245° Southwest 425 489 38,000  Level Denver Center
11:58PM 37.3214 -109.1764 246° West 425 489 38,000  Level Denver Center
11:59PM 37.2753 -109.3050 246° West 425 489 38,000  Level Denver Center
12:00AM 37.2206 -109.4556 246° West 425 489 38,000  Level Denver Center
12:01AM 37.1739 -109.5867 246° West 429 494 38,000  Level Denver Center
12:02AM 37.1261 -109.7131 245° Southwest 425 489 38,000  Level Denver Center
12:03AM 37.0708 -109.8625 245° Southwest 422 486 38,000  Level Denver Center
12:04AM 37.0244 -109.9889 245° Southwest 418 481 38,000  Level Denver Center
12:05AM 36.9678 -110.1383 245° Southwest 424 488 38,000  Level Denver Center
12:06AM 36.9214 -110.2608 245° Southwest 424 488 38,000  Level Denver Center
12:07AM 36.8725 -110.3933 245° Southwest 421 484 38,000  Level Denver Center
12:08AM 36.8128 -110.5514 245° Southwest 420 483 38,000  Level Denver Center
12:09AM 36.7631 -110.6831 245° Southwest 420 483 38,000  Level Denver Center
12:10AM 36.7125 -110.8150 244° Southwest 422 486 38,000  Level Denver Center
12:11AM 36.6642 -110.9436 245° Southwest 416 479 38,000  Level Denver Center
12:12AM 36.6133 -111.0747 244° Southwest 415 478 38,000  Level Denver Center
12:13AM 36.5528 -111.2311 244° Southwest 416 479 38,000  Level Denver Center
12:14AM 36.5028 -111.3603 244° Southwest 416 479 38,000  Level Denver Center
12:15AM 36.4514 -111.4906 244° Southwest 416 479 38,000  Level Denver Center
12:16AM 36.3997 -111.6211 244° Southwest 417 480 38,000  Level Denver Center
12:17AM 36.3489 -111.7506 244° Southwest 417 480 38,000  Level Denver Center
12:18AM 36.2978 -111.8806 244° Southwest 417 480 38,000  Level Denver Center
12:19AM 36.2475 -112.0089 244° Southwest 417 480 38,000  Level Denver Center
12:20AM 36.1967 -112.1375 244° Southwest 417 480 38,000  Level Denver Center
12:21AM 36.1447 -112.2669 244° Southwest 417 480 38,000  Level Denver Center
12:23AM 36.0622 -112.4714 244° Southwest 416 479 38,000  Level Los Angeles Center
12:24AM 36.0108 -112.5992 244° Southwest 415 478 38,000  Level Los Angeles Center
12:25AM 35.9606 -112.7250 244° Southwest 414 476 38,000  Level Los Angeles Center
12:26AM 35.9142 -112.8386 243° Southwest 414 476 38,000  Level Los Angeles Center
12:27AM 35.8639 -112.9642 244° Southwest 414 476 38,000  Level Los Angeles Center
12:28AM 35.8017 -113.1144 243° Southwest 414 476 38,000  Level Los Angeles Center
12:29AM 35.7506 -113.2400 243° Southwest 414 476 38,000  Level Los Angeles Center
12:30AM 35.6986 -113.3650 243° Southwest 414 476 38,000  Level Los Angeles Center
12:31AM 35.6475 -113.4900 243° Southwest 415 478 38,000  Level Los Angeles Center
12:32AM 35.5956 -113.6161 243° Southwest 415 478 38,000  Level Los Angeles Center
12:33AM 35.5453 -113.7417 244° Southwest 415 478 38,000  Level Los Angeles Center
12:34AM 35.4842 -113.8922 244° Southwest 415 478 38,000  Level Los Angeles Center
12:35AM 35.4314 -114.0208 243° Southwest 414 476 38,000  Level Los Angeles Center
12:36AM 35.3797 -114.1444 243° Southwest 409 471 38,000  Level Los Angeles Center
12:37AM 35.3289 -114.2714 244° Southwest 410 472 38,000  Level Los Angeles Center
12:38AM 35.2769 -114.3967 243° Southwest 411 473 38,000  Level Los Angeles Center
12:39AM 35.2253 -114.5206 243° Southwest 411 473 38,000  Level Los Angeles Center
12:40AM 35.1717 -114.6464 242° Southwest 412 474 38,000  Level Los Angeles Center
12:41AM 35.1203 -114.7706 243° Southwest 412 474 38,000  Level Los Angeles Center
12:42AM 35.0694 -114.8950 244° Southwest 411 473 38,000  Level Los Angeles Center
12:43AM 35.0169 -115.0181 243° Southwest 411 473 38,000  Level Los Angeles Center
12:44AM 34.9544 -115.1669 243° Southwest 410 472 38,000  Level Los Angeles Center
12:45AM 34.9028 -115.2883 243° Southwest 408 470 38,000  Level Los Angeles Center
12:46AM 34.8514 -115.4075 242° Southwest 400 460 38,000  Level Los Angeles Center
12:47AM 34.7983 -115.5300 242° Southwest 401 461 38,000 -240 Level Los Angeles Center
12:48AM 34.7467 -115.6544 243° Southwest 407 468 37,600 -720 Descending Los Angeles Center
12:49AM 34.6942 -115.7764 242° Southwest 407 468 36,600 -960 Descending Los Angeles Center
12:50AM 34.6408 -115.8989 242° Southwest 408 470 35,700 -960 Descending Los Angeles Center
12:51AM 34.5878 -116.0219 242° Southwest 408 470 34,700 -960 Descending Los Angeles Center
12:52AM 34.5347 -116.1450 242° Southwest 410 472 33,800 -900 Descending Los Angeles Center
12:53AM 34.4792 -116.2692 242° Southwest 415 478 32,900 -960 Descending Los Angeles Center
12:54AM 34.4250 -116.3950 242° Southwest 419 482 31,900 -1,320 Descending Los Angeles Center
12:55AM 34.3686 -116.5219 242° Southwest 423 487 30,300 -2,040 Descending Los Angeles Center
12:56AM 34.3142 -116.6453 242° Southwest 419 482 27,800 -2,460 Descending Los Angeles Center
12:57AM 34.2606 -116.7650 242° Southwest 407 468 25,400 -2,580 Descending Los Angeles Center
12:58AM 34.1981 -116.9039 241° Southwest 396 456 22,600 -2,460 Descending Los Angeles Center
01:00AM 34.1478 -117.0161 242° Southwest 386 444 20,400 -1,980 Descending Los Angeles Center
01:01AM 34.1008 -117.1267 243° Southwest 374 430 18,600 -1,800 Descending Los Angeles Center
01:02AM 34.0550 -117.2289 242° Southwest 355 409 16,800 -1,800 Descending Los Angeles Center
01:02AM 34.0333 -117.3500 258° West 337 388 15,200 -1,740 Descending Southern California TRACON
01:04AM 34.0333 -117.4667 270° West 328 377 13,400 -1,620 Descending Southern California TRACON
01:05AM 34.0167 -117.5667 259° West 340 391 11,800 -1,620 Descending Southern California TRACON
01:06AM 34.0000 -117.6667 259° West 308 354 10,200 -1,500 Descending Southern California TRACON
01:07AM 34.0000 -117.7667 270° West 285 328 8,800 -1,320 Descending Southern California TRACON
01:07AM 33.9833 -117.8500 256° West 281 323 7,700 -1,260 Descending Southern California TRACON
01:08AM 33.9833 -117.9500 270° West 261 300 6,500 -1,080 Descending Southern California TRACON
01:09AM 33.9667 -118.0167 253° West 234 269 5,600 -900 Descending Southern California TRACON
01:10AM 33.9667 -118.1000 270° West 231 266 4,700 -1,020 Descending Southern California TRACON
01:11AM 33.9667 -118.1667 270° West 209 241 3,600 -1,140 Descending Southern California TRACON
01:13AM 33.9500 -118.2500 256° West 191 220 2,400 -1,020 Descending Southern California TRACON
01:14AM 33.9500 -118.3000 270° West 158 182 1,400 -840 Descending Southern California TRACON
01:14AM 33.9500 -118.3333 270° West 139 160 900 -600 Descending Southern California TRACON
01:16AM 33.9372 -118.3958 256° West 147 169 100 -600 Descending Los Angeles Center